地図

経路データ

SID SEASON NUMBER BASIN SUBBASIN NAME ISO_TIME NATURE LAT LON WMO_WIND WMO_PRES WMO_AGENCY TRACK_TYPE DIST2LAND LANDFALL IFLAG USA_AGENCY USA_ATCF_ID USA_LAT USA_LON USA_RECORD USA_STATUS USA_WIND USA_PRES USA_SSHS USA_R34_NE USA_R34_SE USA_R34_SW USA_R34_NW USA_R50_NE USA_R50_SE USA_R50_SW USA_R50_NW USA_R64_NE USA_R64_SE USA_R64_SW USA_R64_NW USA_POCI USA_ROCI USA_RMW USA_EYE TOKYO_LAT TOKYO_LON TOKYO_GRADE TOKYO_WIND TOKYO_PRES TOKYO_R50_DIR TOKYO_R50_LONG TOKYO_R50_SHORT TOKYO_R30_DIR TOKYO_R30_LONG TOKYO_R30_SHORT TOKYO_LAND CMA_LAT CMA_LON CMA_CAT CMA_WIND CMA_PRES HKO_LAT HKO_LON HKO_CAT HKO_WIND HKO_PRES NEWDELHI_LAT NEWDELHI_LON NEWDELHI_GRADE NEWDELHI_WIND NEWDELHI_PRES NEWDELHI_CI NEWDELHI_DP NEWDELHI_POCI REUNION_LAT REUNION_LON REUNION_TYPE REUNION_WIND REUNION_PRES REUNION_TNUM REUNION_CI REUNION_RMW REUNION_R34_NE REUNION_R34_SE REUNION_R34_SW REUNION_R34_NW REUNION_R50_NE REUNION_R50_SE REUNION_R50_SW REUNION_R50_NW REUNION_R64_NE REUNION_R64_SE REUNION_R64_SW REUNION_R64_NW BOM_LAT BOM_LON BOM_TYPE BOM_WIND BOM_PRES BOM_TNUM BOM_CI BOM_RMW BOM_R34_NE BOM_R34_SE BOM_R34_SW BOM_R34_NW BOM_R50_NE BOM_R50_SE BOM_R50_SW BOM_R50_NW BOM_R64_NE BOM_R64_SE BOM_R64_SW BOM_R64_NW BOM_ROCI BOM_POCI BOM_EYE BOM_POS_METHOD BOM_PRES_METHOD NADI_LAT NADI_LON NADI_CAT NADI_WIND NADI_PRES WELLINGTON_LAT WELLINGTON_LON WELLINGTON_WIND WELLINGTON_PRES DS824_LAT DS824_LON DS824_STAGE DS824_WIND DS824_PRES TD9636_LAT TD9636_LON TD9636_STAGE TD9636_WIND TD9636_PRES TD9635_LAT TD9635_LON TD9635_WIND TD9635_PRES TD9635_ROCI NEUMANN_LAT NEUMANN_LON NEUMANN_CLASS NEUMANN_WIND NEUMANN_PRES MLC_LAT MLC_LON MLC_CLASS MLC_WIND MLC_PRES USA_GUST BOM_GUST BOM_GUST_PER REUNION_GUST REUNION_GUST_PER USA_SEAHGT USA_SEARAD_NE USA_SEARAD_SE USA_SEARAD_SW USA_SEARAD_NW STORM_SPEED STORM_DIR
1984237N11230 1984 67 EP MM LALA 1984-08-23 18:00:00 TS 11.1000 -130.300 25 hurdat_epa main 2447 2447 O_________O___ hurdat_epa EP121984 11.1000 -130.300 TD 25 -1 11.1000 -130.300 1 25 8 279
1984237N11230 1984 67 EP MM LALA 1984-08-23 21:00:00 TS 11.1589 -130.693 main 2467 2467 P_________P___ EP121984 11.1576 -130.692 TD 27 -1 11.1629 -130.695 1 27 8 277
1984237N11230 1984 67 EP MM LALA 1984-08-24 00:00:00 TS 11.2000 -131.100 30 hurdat_epa main 2495 2495 O_________O___ hurdat_epa EP121984 11.2000 -131.100 TD 30 -1 11.2000 -131.100 1 30 8 274
1984237N11230 1984 67 EP MM LALA 1984-08-24 03:00:00 TS 11.2097 -131.533 main 2523 2523 P_________P___ EP121984 11.2149 -131.535 TD 30 -1 11.1939 -131.525 1 30 9 269
1984237N11230 1984 67 EP MM LALA 1984-08-24 06:00:00 TS 11.1899 -131.995 30 hurdat_epa main 2559 2559 O_________P___ hurdat_epa EP121984 11.2000 -132.000 TD 30 -1 11.1597 -131.979 1 30 9 266
1984237N11230 1984 67 EP MM LALA 1984-08-24 09:00:00 TS 11.1370 -132.475 main 2567 2517 P_________P___ EP121984 11.1424 -132.478 TD 30 -1 11.1207 -132.468 1 30 10 265
1984237N11230 1984 67 EP MM LALA 1984-08-24 12:00:00 TS 11.1000 -133.000 30 hurdat_epa main 2517 2458 O_________O___ hurdat_epa EP121984 11.1000 -133.000 TD 30 -1 11.1000 -133.000 1 30 11 270
1984237N11230 1984 67 EP MM LALA 1984-08-24 15:00:00 TS 11.1344 -133.586 main 2458 2394 P_________P___ EP121984 11.1349 -133.577 TD 30 -1 11.1329 -133.610 1 30 12 275
1984237N11230 1984 67 EP MM LALA 1984-08-24 18:00:00 TS 11.1964 -134.214 30 hurdat_epa main 2394 2335 O_________P___ hurdat_epa EP121984 11.2000 -134.200 TD 30 -1 11.1856 -134.257 1 30 13 275
1984237N11230 1984 67 EP MM LALA 1984-08-24 21:00:00 TS 11.2489 -134.880 main 2325 2261 P_________P___ EP121984 11.2501 -134.872 TD 30 -1 11.2454 -134.901 1 30 13 275
1984237N11230 1984 67 EP MM LALA 1984-08-25 00:00:00 TS 11.3000 -135.500 30 hurdat_epa main 2261 2207 O_________O___ hurdat_epa EP121984 11.3000 -135.500 TD 30 -1 11.3000 -135.500 1 30 11 276
1984237N11230 1984 67 EP MM LALA 1984-08-25 03:00:00 TS 11.3539 -135.983 main 2207 2168 P_________P___ EP121984 11.3573 -135.980 TD 30 -1 11.3436 -135.992 1 30 9 276
1984237N11230 1984 67 EP MM LALA 1984-08-25 06:00:00 TS 11.3948 -136.409 30 hurdat_epa main 2168 2129 O_________P___ hurdat_epa EP121984 11.4000 -136.400 TD 30 -1 11.3790 -136.437 1 30 9 274
1984237N11230 1984 67 EP MM LALA 1984-08-25 09:00:00 TS 11.4112 -136.853 main 2120 2081 P_________P___ EP121984 11.4149 -136.850 TD 30 -1 11.4000 -136.864 1 30 9 270
1984237N11230 1984 67 EP MM LALA 1984-08-25 12:00:00 TS 11.4000 -137.300 30 hurdat_epa main 2081 2043 O_________O___ hurdat_epa EP121984 11.4000 -137.300 TD 30 -1 11.4000 -137.300 1 30 9 267
1984237N11230 1984 67 EP MM LALA 1984-08-25 15:00:00 TS 11.3588 -137.748 main 2043 2000 P_________P___ EP121984 11.3574 -137.735 TD 30 -1 11.3633 -137.786 1 30 9 264
1984237N11230 1984 67 EP MM LALA 1984-08-25 18:00:00 TS 11.3018 -138.221 30 hurdat_epa main 2000 1953 O_________P___ hurdat_epa EP121984 11.3000 -138.200 TD 30 -1 11.3073 -138.285 1 30 10 264
1984237N11230 1984 67 EP MM LALA 1984-08-25 21:00:00 TS 11.2494 -138.744 main 1959 1902 P_________P___ EP121984 11.2499 -138.727 TD 30 -1 11.2477 -138.792 1 30 11 265
1984237N11230 1984 67 EP MM LALA 1984-08-26 00:00:00 TS 11.2000 -139.300 30 hurdat_epa main 1902 1852 O_________O___ hurdat_epa EP121984 11.2000 -139.300 TD 30 -1 11.2000 -139.300 1 30 11 265
1984237N11230 1984 67 EP MM LALA 1984-08-26 03:00:00 TS 11.1447 -139.897 main 1852 1806 P_________P___ EP121984 11.1351 -139.923 TD 30 -1 11.1734 -139.820 1 30 11 266
1984237N11230 1984 67 EP CP LALA 1984-08-26 06:00:00 TS 11.1156 -140.459 30 hurdat_epa main 1797 1761 O_________P___ hurdat_epa EP121984 11.1000 -140.500 TD 30 -1 11.1625 -140.337 1 30 10 270
1984237N11230 1984 67 EP CP LALA 1984-08-26 09:00:00 TS 11.1381 -140.906 main 1761 1719 P_________P___ EP121984 11.1273 -140.930 TD 30 -1 11.1703 -140.836 1 30 8 277
1984237N11230 1984 67 EP CP LALA 1984-08-26 12:00:00 TS 11.2118 -141.306 30 hurdat_epa main 1719 1676 O_________O___ hurdat_epa EP121984 11.2000 -141.300 TD 30 -1 11.2000 -141.300 1 30 8 281
1984237N11230 1984 67 EP CP LALA 1984-08-26 15:00:00 TS 11.2967 -141.730 main 1676 1634 P_________P___ EP121984 11.3000 -141.707 TD 30 -1 11.2653 -141.723 1 30 8 281
1984237N11230 1984 67 EP CP LALA 1984-08-26 18:00:00 TS 11.3736 -142.134 30 hurdat_epa main 1634 1599 O_________P___ hurdat_epa EP121984 11.4000 -142.100 TD 30 -1 11.3496 -142.110 1 30 8 280
1984237N11230 1984 67 EP CP LALA 1984-08-26 21:00:00 TS 11.4243 -142.495 main 1599 1566 P_________P___ EP121984 11.4650 -142.465 TD 30 -1 11.4342 -142.467 1 30 7 277
1984237N11230 1984 67 EP CP LALA 1984-08-27 00:00:00 TS 11.4600 -142.820 30 hurdat_epa main 1566 1539 O_________O___ hurdat_epa EP121984 11.5000 -142.800 TD 30 -1 11.5000 -142.800 1 30 6 274
1984237N11230 1984 67 EP CP LALA 1984-08-27 03:00:00 TS 11.4687 -143.140 main 1539 1513 P_________P___ EP121984 11.5074 -143.108 TD 30 -1 11.5214 -143.130 1 30 6 270
1984237N11230 1984 67 EP CP LALA 1984-08-27 06:00:00 TS 11.4645 -143.448 30 hurdat_epa main 1513 1488 O_________P___ hurdat_epa EP121984 11.5000 -143.400 TD 30 -1 11.5223 -143.438 1 30 6 269
1984237N11230 1984 67 EP CP LALA 1984-08-27 09:00:00 TS 11.4609 -143.751 main 1479 1462 P_________P___ EP121984 11.5000 -143.708 TD 30 -1 11.5121 -143.727 1 30 6 270
1984237N11230 1984 67 EP CP LALA 1984-08-27 12:00:00 TS 11.4600 -144.040 30 hurdat_epa main 1462 1437 O_________O___ hurdat_epa EP121984 11.5000 -144.000 TD 30 -1 11.5000 -144.000 1 30 5 271
1984237N11230 1984 67 EP CP LALA 1984-08-27 15:00:00 TS 11.4684 -144.307 main 1437 1420 P_________P___ EP121984 11.5000 -144.258 TD 30 -1 11.4999 -144.264 1 30 5 272
1984237N11230 1984 67 EP CP LALA 1984-08-27 18:00:00 TS 11.4800 -144.563 30 hurdat_epa main 1412 1395 O_________P___ hurdat_epa EP121984 11.5000 -144.500 TD 30 -1 11.4998 -144.515 1 30 5 272
1984237N11230 1984 67 EP CP LALA 1984-08-27 21:00:00 TS 11.4900 -144.825 main 1395 1371 P_________P___ EP121984 11.5000 -144.750 TD 30 -1 11.4999 -144.758 1 30 5 272
1984237N11230 1984 67 EP CP LALA 1984-08-28 00:00:00 TS 11.5000 -145.080 30 hurdat_epa main 1371 1355 O_________O___ hurdat_epa EP121984 11.5000 -145.000 TD 30 -1 11.5000 -145.000 1 30 5 272
1984237N11230 1984 67 EP CP LALA 1984-08-28 03:00:00 TS 11.5092 -145.323 main 1355 1339 P_________P___ EP121984 11.5000 -145.250 TD 30 -1 11.4959 -145.250 1 30 5 272
1984237N11230 1984 67 EP CP LALA 1984-08-28 06:00:00 TS 11.5185 -145.560 30 hurdat_epa main 1331 1315 O_________P___ hurdat_epa EP121984 11.5000 -145.500 TD 30 -1 11.4924 -145.500 1 30 5 272
1984237N11230 1984 67 EP CP LALA 1984-08-28 09:00:00 TS 11.5285 -145.802 main 1315 1299 P_________P___ EP121984 11.5000 -145.750 TD 30 -1 11.4927 -145.750 1 30 5 273
1984237N11230 1984 67 EP CP LALA 1984-08-28 12:00:00 TS 11.5400 -146.040 30 hurdat_epa main 1299 1276 O_________O___ hurdat_epa EP121984 11.5000 -146.000 TD 30 -1 11.5000 -146.000 1 30 5 272
1984237N11230 1984 67 EP CP LALA 1984-08-28 15:00:00 TS 11.5435 -146.275 main 1276 1253 P_________P___ EP121984 11.4925 -146.250 TD 30 -1 11.4975 -146.266 1 30 5 273
1984237N11230 1984 67 EP CP LALA 1984-08-28 18:00:00 TS 11.5610 -146.506 30 hurdat_epa main 1253 1238 O_________P___ hurdat_epa EP121984 11.5000 -146.500 TD 30 -1 11.5050 -146.530 1 30 5 278
1984237N11230 1984 67 EP CP LALA 1984-08-28 21:00:00 TS 11.6080 -146.746 main 1238 1214 P_________P___ EP121984 11.5350 -146.765 TD 30 -1 11.5350 -146.779 1 30 5 285
1984237N11230 1984 67 EP CP LALA 1984-08-29 00:00:00 TS 11.6800 -146.960 30 hurdat_epa main 1207 1191 O_________O___ hurdat_epa EP121984 11.6000 -147.000 TD 30 -1 11.6000 -147.000 1 30 4 293
1984237N11230 1984 67 EP CP LALA 1984-08-29 03:00:00 TS 11.7593 -147.116 main 1191 1176 P_________P___ EP121984 11.6775 -147.165 TD 30 -1 11.7140 -147.183 1 31 3 304
1984237N11230 1984 67 EP CP LALA 1984-08-29 06:00:00 TS 11.8725 -147.247 30 hurdat_epa main 1176 1152 O_________P___ hurdat_epa EP121984 11.8000 -147.300 TD 30 -1 11.8624 -147.337 1 32 4 316
1984237N11230 1984 67 EP CP LALA 1984-08-29 09:00:00 TS 12.0429 -147.398 main 1152 1129 P_________P___ EP121984 12.0000 -147.457 TD 32 -1 12.0296 -147.473 1 33 5 321
1984237N11230 1984 67 EP CP LALA 1984-08-29 12:00:00 TS 12.2200 -147.540 35 hurdat_epa main 1129 1113 O_________O___ hurdat_epa EP121984 12.2000 -147.600 TS 35 0 12.2000 -147.600 2 35 4 320
1984237N11230 1984 67 EP CP LALA 1984-08-29 15:00:00 TS 12.3400 -147.653 main 1106 1082 P_________P___ EP121984 12.3000 -147.700 TS 37 0 12.3499 -147.724 2 37 3 317
1984237N11230 1984 67 EP CP LALA 1984-08-29 18:00:00 TS 12.4600 -147.769 40 hurdat_epa main 1082 1066 O_________P___ hurdat_epa EP121984 12.4000 -147.800 TS 40 0 12.4999 -147.843 2 40 4 318
1984237N11230 1984 67 EP CP LALA 1984-08-29 21:00:00 TS 12.6240 -147.917 main 1066 1035 P_________P___ EP121984 12.5925 -147.942 TS 42 0 12.6499 -147.965 2 42 5 318
1984237N11230 1984 67 EP CP LALA 1984-08-30 00:00:00 TS 12.8000 -148.080 45 hurdat_epa main 1035 1012 O_________O___ hurdat_epa EP121984 12.8000 -148.100 TS 45 0 12.8000 -148.100 2 45 5 317
1984237N11230 1984 67 EP CP LALA 1984-08-30 03:00:00 TS 12.9614 -148.241 main 1012 988 P_________P___ EP121984 12.9575 -148.243 TS 42 0 12.9419 -148.261 2 43 5 315
1984237N11230 1984 67 EP CP LALA 1984-08-30 06:00:00 TS 13.1170 -148.407 40 hurdat_epa main 988 957 O_________P___ hurdat_epa EP121984 13.1000 -148.400 TS 40 0 13.0850 -148.435 2 42 5 312
1984237N11230 1984 67 EP CP LALA 1984-08-30 09:00:00 TS 13.2626 -148.582 main 957 934 P_________P___ EP121984 13.2425 -148.600 TS 40 0 13.2356 -148.617 2 41 5 311
1984237N11230 1984 67 EP CP LALA 1984-08-30 12:00:00 TS 13.4200 -148.760 40 hurdat_epa main 934 910 O_________O___ hurdat_epa EP121984 13.4000 -148.800 TS 40 0 13.4000 -148.800 2 40 5 316
1984237N11230 1984 67 EP CP LALA 1984-08-30 15:00:00 TS 13.6103 -148.929 main 910 879 P_________P___ EP121984 13.5925 -148.950 TS 37 0 13.5813 -148.947 2 37 5 320
1984237N11230 1984 67 EP CP LALA 1984-08-30 18:00:00 TS 13.8154 -149.100 35 hurdat_epa main 879 856 O_________P___ hurdat_epa EP121984 13.8000 -149.100 TS 35 0 13.7772 -149.098 2 35 5 321
1984237N11230 1984 67 EP CP LALA 1984-08-30 21:00:00 TS 14.0108 -149.259 main 848 825 P_________P___ EP121984 13.9925 -149.278 TS 32 -1 13.9844 -149.275 2 32 5 319
1984237N11230 1984 67 EP CP LALA 1984-08-31 00:00:00 TS 14.2200 -149.460 30 hurdat_epa main 817 786 O_________O___ hurdat_epa EP121984 14.2000 -149.500 TD 30 -1 14.2000 -149.500 1 30 6 314
1984237N11230 1984 67 EP CP LALA 1984-08-31 03:00:00 TS 14.4604 -149.731 main 778 732 P_________P___ EP121984 14.4499 -149.770 TD 30 -1 14.4174 -149.755 1 30 8 309
1984237N11230 1984 67 EP CP LALA 1984-08-31 06:00:00 TS 14.7083 -150.073 30 hurdat_epa main 732 693 O_________P___ hurdat_epa EP121984 14.7000 -150.100 TD 30 -1 14.6417 -150.066 1 30 9 304
1984237N11230 1984 67 EP CP LALA 1984-08-31 09:00:00 TS 14.9369 -150.457 main 686 640 P_________P___ EP121984 14.8999 -150.463 TD 30 -1 14.8702 -150.443 1 30 9 299
1984237N11230 1984 67 EP CP LALA 1984-08-31 12:00:00 TS 15.1600 -150.920 30 hurdat_epa main 632 580 O_________O___ hurdat_epa EP121984 15.1000 -150.900 TD 30 -1 15.1000 -150.900 1 30 11 296
1984237N11230 1984 67 EP CP LALA 1984-08-31 15:00:00 TS 15.4014 -151.459 main 573 522 P_________P___ EP121984 15.3498 -151.405 TD 30 -1 15.3699 -151.437 1 30 12 293
1984237N11230 1984 67 EP CP LALA 1984-08-31 18:00:00 TS 15.6265 -152.070 30 hurdat_epa main 515 461 O_________P___ hurdat_epa EP121984 15.6000 -152.000 TD 30 -1 15.6327 -152.051 1 30 13 290
1984237N11230 1984 67 EP CP LALA 1984-08-31 21:00:00 TS 15.8322 -152.719 main 461 406 P_________P___ EP121984 15.8375 -152.677 TD 30 -1 15.8541 -152.715 1 30 13 285
1984237N11230 1984 67 EP CP LALA 1984-09-01 00:00:00 TS 15.9600 -153.400 30 hurdat_epa main 406 371 O_________O___ hurdat_epa EP121984 16.0000 -153.400 TD 30 -1 16.0000 -153.400 1 30 13 276
1984237N11230 1984 67 EP CP LALA 1984-09-01 03:00:00 TS 15.9699 -154.068 main 366 352 P_________P___ EP121984 16.0448 -154.108 TD 30 -1 16.0355 -154.013 1 30 13 267
1984237N11230 1984 67 EP CP LALA 1984-09-01 06:00:00 TS 15.8990 -154.749 30 hurdat_epa main 352 341 O_________P___ hurdat_epa EP121984 16.0000 -154.800 TD 30 -1 15.9949 -154.646 1 30 13 263
1984237N11230 1984 67 EP CP LALA 1984-09-01 09:00:00 TS 15.8014 -155.415 main 348 346 P_________P___ EP121984 15.9218 -155.412 TD 30 -1 15.9070 -155.331 1 30 14 261
1984237N11230 1984 67 EP CP LALA 1984-09-01 12:00:00 TS 15.6800 -156.160 30 hurdat_epa main 362 362 O_________O___ hurdat_epa EP121984 15.8000 -156.100 TD 30 -1 15.8000 -156.100 1 30 16 261
1984237N11230 1984 67 EP CP LALA 1984-09-01 15:00:00 TS 15.5494 -157.073 main 408 408 P_________P___ EP121984 15.6425 -156.998 TD 30 -1 15.6995 -157.022 1 30 19 262
1984237N11230 1984 67 EP CP LALA 1984-09-01 18:00:00 TS 15.4374 -158.064 30 hurdat_epa main 467 467 O_________P___ hurdat_epa EP121984 15.5000 -158.000 TD 30 -1 15.5869 -158.021 1 30 19 265
1984237N11230 1984 67 EP CP LALA 1984-09-01 21:00:00 TS 15.3796 -159.055 main 532 532 P_________P___ EP121984 15.4275 -159.022 TD 30 -1 15.4806 -159.035 1 30 19 268
1984237N11230 1984 67 EP CP LALA 1984-09-02 00:00:00 TS 15.3600 -160.000 30 hurdat_epa main 600 600 O_________O___ hurdat_epa EP121984 15.4000 -160.000 TD 30 -1 15.4000 -160.000 1 30 17 269
1984237N11230 1984 67 EP CP LALA 1984-09-02 03:00:00 TS 15.3609 -160.834 main 664 664 P_________P___ EP121984 15.3919 -160.837 TD 30 -1 15.3713 -160.845 1 30 16 271
1984237N11230 1984 67 EP CP LALA 1984-09-02 06:00:00 TS 15.3742 -161.607 30 hurdat_epa main 733 733 O_________P___ hurdat_epa EP121984 15.4000 -161.600 TD 30 -1 15.3711 -161.634 1 30 15 271
1984237N11230 1984 67 EP CP LALA 1984-09-02 09:00:00 TS 15.3769 -162.368 main 787 787 P_________P___ EP121984 15.3997 -162.365 TD 30 -1 15.3854 -162.381 1 30 14 270
1984237N11230 1984 67 EP CP LALA 1984-09-02 12:00:00 TS 15.3800 -163.100 30 hurdat_epa main 815 815 O_________O___ hurdat_epa EP121984 15.4000 -163.100 TD 30 -1 15.4000 -163.100 1 30 14 270
1984237N11230 1984 67 EP CP LALA 1984-09-02 15:00:00 TS 15.3886 -163.807 main 849 849 P_________P___ EP121984 15.4004 -163.807 TD 27 -1 15.4040 -163.804 1 27 14 271
1984237N11230 1984 67 EP CP LALA 1984-09-02 18:00:00 TS 15.4000 -164.500 25 hurdat_epa main 888 O_________O___ hurdat_epa EP121984 15.4000 -164.500 TD 25 -1 15.4000 -164.500 1 25 13 271

IBTrACS Databaseについて

本データベースは、米国NOAAが公開する1842年以降の世界の熱帯低気圧のベストトラックデータアーカイブInternational Best Track Archive for Climate Stewardship (IBTrACS)を、ウェブで閲覧しやすい形式に変換したものです。

最終更新日:2021-12-03